sensor_id;sensor_type;location;lat;lon;timestamp;P1;durP1;ratioP1;P2;durP2;ratioP2
8885;SDS011;4479;51.162;13.906;2023-06-10T00:03:22;4.20;;;3.03;;
8885;SDS011;4479;51.162;13.906;2023-06-10T00:13:29;3.20;;;2.90;;
8885;SDS011;4479;51.162;13.906;2023-06-10T00:23:32;3.00;;;2.73;;
8885;SDS011;4479;51.162;13.906;2023-06-10T00:33:39;2.97;;;2.73;;
8885;SDS011;4479;51.162;13.906;2023-06-10T00:43:41;4.07;;;3.10;;
8885;SDS011;4479;51.162;13.906;2023-06-10T00:53:46;3.80;;;3.17;;
8885;SDS011;4479;51.162;13.906;2023-06-10T01:03:49;3.40;;;3.10;;
8885;SDS011;4479;51.162;13.906;2023-06-10T01:13:52;5.93;;;4.80;;
8885;SDS011;4479;51.162;13.906;2023-06-10T01:23:58;4.90;;;4.47;;
8885;SDS011;4479;51.162;13.906;2023-06-10T01:34:01;5.73;;;5.23;;
8885;SDS011;4479;51.162;13.906;2023-06-10T01:44:08;5.07;;;4.67;;
8885;SDS011;4479;51.162;13.906;2023-06-10T01:54:13;4.93;;;4.47;;
8885;SDS011;4479;51.162;13.906;2023-06-10T02:04:17;6.57;;;4.87;;
8885;SDS011;4479;51.162;13.906;2023-06-10T02:14:20;6.03;;;4.50;;
8885;SDS011;4479;51.162;13.906;2023-06-10T02:24:24;5.23;;;4.73;;
8885;SDS011;4479;51.162;13.906;2023-06-10T02:34:26;5.63;;;4.50;;
8885;SDS011;4479;51.162;13.906;2023-06-10T02:55:57;5.23;;;4.10;;
8885;SDS011;4479;51.162;13.906;2023-06-10T03:07:05;5.17;;;4.67;;
8885;SDS011;4479;51.162;13.906;2023-06-10T03:17:56;4.67;;;4.27;;
8885;SDS011;4479;51.162;13.906;2023-06-10T03:28:31;6.03;;;4.23;;
8885;SDS011;4479;51.162;13.906;2023-06-10T03:38:41;4.97;;;4.30;;
8885;SDS011;4479;51.162;13.906;2023-06-10T03:49:06;5.10;;;4.70;;
8885;SDS011;4479;51.162;13.906;2023-06-10T03:59:27;5.33;;;4.83;;
8885;SDS011;4479;51.162;13.906;2023-06-10T04:09:29;5.00;;;4.50;;
8885;SDS011;4479;51.162;13.906;2023-06-10T04:19:33;4.47;;;4.07;;
8885;SDS011;4479;51.162;13.906;2023-06-10T04:29:36;4.27;;;3.97;;
8885;SDS011;4479;51.162;13.906;2023-06-10T04:39:40;3.80;;;3.50;;
8885;SDS011;4479;51.162;13.906;2023-06-10T04:49:43;3.43;;;3.13;;
8885;SDS011;4479;51.162;13.906;2023-06-10T09:11:42;5.00;;;4.60;;
8885;SDS011;4479;51.162;13.906;2023-06-10T09:21:44;5.13;;;4.63;;
8885;SDS011;4479;51.162;13.906;2023-06-10T09:31:48;4.80;;;4.40;;
8885;SDS011;4479;51.162;13.906;2023-06-10T09:41:51;5.90;;;5.40;;
8885;SDS011;4479;51.162;13.906;2023-06-10T09:51:54;6.67;;;5.60;;
8885;SDS011;4479;51.162;13.906;2023-06-10T10:01:57;6.53;;;6.03;;
8885;SDS011;4479;51.162;13.906;2023-06-10T10:12:02;7.40;;;6.00;;
8885;SDS011;4479;51.162;13.906;2023-06-10T10:22:06;6.40;;;5.80;;
8885;SDS011;4479;51.162;13.906;2023-06-10T10:32:11;7.67;;;5.97;;
8885;SDS011;4479;51.162;13.906;2023-06-10T10:42:15;5.77;;;5.17;;
8885;SDS011;4479;51.162;13.906;2023-06-10T10:52:20;6.17;;;5.67;;
8885;SDS011;4479;51.162;13.906;2023-06-10T11:02:32;6.43;;;5.83;;
8885;SDS011;4479;51.162;13.906;2023-06-10T11:12:51;6.27;;;5.67;;
8885;SDS011;4479;51.162;13.906;2023-06-10T11:22:58;6.17;;;5.37;;
8885;SDS011;4479;51.162;13.906;2023-06-10T11:33:01;7.10;;;5.33;;
8885;SDS011;4479;51.162;13.906;2023-06-10T11:43:04;6.73;;;6.13;;
8885;SDS011;4479;51.162;13.906;2023-06-10T11:53:08;5.80;;;5.40;;
8885;SDS011;4479;51.162;13.906;2023-06-10T12:03:10;7.83;;;6.30;;
8885;SDS011;4479;51.162;13.906;2023-06-10T12:13:14;6.23;;;5.73;;
8885;SDS011;4479;51.162;13.906;2023-06-10T12:23:18;5.93;;;5.40;;
8885;SDS011;4479;51.162;13.906;2023-06-10T12:33:23;6.43;;;5.87;;
8885;SDS011;4479;51.162;13.906;2023-06-10T12:43:25;6.80;;;6.10;;
8885;SDS011;4479;51.162;13.906;2023-06-10T12:53:29;7.03;;;6.43;;
8885;SDS011;4479;51.162;13.906;2023-06-10T13:03:31;6.50;;;6.00;;
8885;SDS011;4479;51.162;13.906;2023-06-10T13:13:35;7.20;;;6.40;;
8885;SDS011;4479;51.162;13.906;2023-06-10T13:23:38;5.80;;;5.40;;
8885;SDS011;4479;51.162;13.906;2023-06-10T13:33:42;5.33;;;4.67;;
8885;SDS011;4479;51.162;13.906;2023-06-10T13:43:44;4.80;;;4.40;;
8885;SDS011;4479;51.162;13.906;2023-06-10T13:53:48;4.20;;;3.90;;
8885;SDS011;4479;51.162;13.906;2023-06-10T14:03:51;4.87;;;4.37;;
8885;SDS011;4479;51.162;13.906;2023-06-10T14:13:55;5.17;;;4.67;;
8885;SDS011;4479;51.162;13.906;2023-06-10T14:23:57;4.00;;;3.70;;
8885;SDS011;4479;51.162;13.906;2023-06-10T14:34:01;4.60;;;4.03;;
8885;SDS011;4479;51.162;13.906;2023-06-10T14:44:05;4.80;;;4.50;;
8885;SDS011;4479;51.162;13.906;2023-06-10T14:54:09;6.73;;;6.03;;
8885;SDS011;4479;51.162;13.906;2023-06-10T15:04:11;8.07;;;7.37;;
8885;SDS011;4479;51.162;13.906;2023-06-10T15:14:15;6.53;;;6.00;;
8885;SDS011;4479;51.162;13.906;2023-06-10T15:24:17;5.63;;;5.13;;
8885;SDS011;4479;51.162;13.906;2023-06-10T15:34:21;5.47;;;5.00;;
8885;SDS011;4479;51.162;13.906;2023-06-10T15:44:23;5.27;;;4.77;;
8885;SDS011;4479;51.162;13.906;2023-06-10T15:54:29;5.17;;;4.67;;
8885;SDS011;4479;51.162;13.906;2023-06-10T16:04:33;5.33;;;4.93;;
8885;SDS011;4479;51.162;13.906;2023-06-10T16:25:04;5.43;;;4.93;;
8885;SDS011;4479;51.162;13.906;2023-06-10T16:35:59;4.90;;;4.50;;
8885;SDS011;4479;51.162;13.906;2023-06-10T16:46:35;4.23;;;3.90;;
8885;SDS011;4479;51.162;13.906;2023-06-10T16:57:38;4.40;;;4.00;;
8885;SDS011;4479;51.162;13.906;2023-06-10T17:07:54;4.33;;;4.00;;
8885;SDS011;4479;51.162;13.906;2023-06-10T17:18:05;5.00;;;4.20;;
8885;SDS011;4479;51.162;13.906;2023-06-10T17:28:30;4.47;;;4.07;;
8885;SDS011;4479;51.162;13.906;2023-06-10T17:38:55;4.77;;;4.37;;
8885;SDS011;4479;51.162;13.906;2023-06-10T17:49:15;4.50;;;4.10;;
8885;SDS011;4479;51.162;13.906;2023-06-10T17:59:30;4.57;;;4.17;;
8885;SDS011;4479;51.162;13.906;2023-06-10T18:09:39;4.60;;;4.30;;
8885;SDS011;4479;51.162;13.906;2023-06-10T18:19:42;5.10;;;4.60;;
8885;SDS011;4479;51.162;13.906;2023-06-10T18:29:45;5.10;;;4.70;;
8885;SDS011;4479;51.162;13.906;2023-06-10T18:39:48;5.33;;;4.87;;
8885;SDS011;4479;51.162;13.906;2023-06-10T18:49:52;4.70;;;4.30;;
8885;SDS011;4479;51.162;13.906;2023-06-10T18:59:54;6.33;;;4.07;;
8885;SDS011;4479;51.162;13.906;2023-06-10T19:09:58;4.80;;;4.27;;
8885;SDS011;4479;51.162;13.906;2023-06-10T19:20:00;4.13;;;3.73;;
8885;SDS011;4479;51.162;13.906;2023-06-10T19:30:05;3.43;;;3.13;;
8885;SDS011;4479;51.162;13.906;2023-06-10T19:40:08;3.80;;;3.40;;
8885;SDS011;4479;51.162;13.906;2023-06-10T19:50:12;3.80;;;3.50;;
8885;SDS011;4479;51.162;13.906;2023-06-10T20:00:15;3.80;;;3.30;;
8885;SDS011;4479;51.162;13.906;2023-06-10T20:10:19;5.23;;;3.60;;
8885;SDS011;4479;51.162;13.906;2023-06-10T20:20:21;4.73;;;3.90;;
8885;SDS011;4479;51.162;13.906;2023-06-10T20:30:25;4.00;;;3.60;;
8885;SDS011;4479;51.162;13.906;2023-06-10T20:40:27;4.43;;;3.67;;
8885;SDS011;4479;51.162;13.906;2023-06-10T20:50:31;4.53;;;3.67;;
8885;SDS011;4479;51.162;13.906;2023-06-10T21:00:34;4.63;;;3.70;;
8885;SDS011;4479;51.162;13.906;2023-06-10T21:10:38;8.37;;;3.50;;
8885;SDS011;4479;51.162;13.906;2023-06-10T21:20:40;5.40;;;4.00;;
8885;SDS011;4479;51.162;13.906;2023-06-10T21:30:43;5.40;;;3.57;;
8885;SDS011;4479;51.162;13.906;2023-06-10T21:40:46;3.57;;;3.27;;
8885;SDS011;4479;51.162;13.906;2023-06-10T21:50:50;3.23;;;2.93;;
8885;SDS011;4479;51.162;13.906;2023-06-10T22:00:52;3.60;;;3.30;;
8885;SDS011;4479;51.162;13.906;2023-06-10T22:10:56;3.10;;;2.87;;
8885;SDS011;4479;51.162;13.906;2023-06-10T22:20:58;3.93;;;2.87;;
8885;SDS011;4479;51.162;13.906;2023-06-10T22:31:04;3.40;;;2.73;;
8885;SDS011;4479;51.162;13.906;2023-06-10T22:41:06;4.63;;;2.97;;
8885;SDS011;4479;51.162;13.906;2023-06-10T22:51:10;2.93;;;2.73;;
8885;SDS011;4479;51.162;13.906;2023-06-10T23:01:12;3.03;;;2.73;;
8885;SDS011;4479;51.162;13.906;2023-06-10T23:11:16;4.60;;;3.00;;
8885;SDS011;4479;51.162;13.906;2023-06-10T23:21:18;2.90;;;2.60;;
8885;SDS011;4479;51.162;13.906;2023-06-10T23:31:22;3.10;;;2.80;;
8885;SDS011;4479;51.162;13.906;2023-06-10T23:41:24;3.20;;;2.60;;
8885;SDS011;4479;51.162;13.906;2023-06-10T23:51:28;4.67;;;2.80;;
